sensor_id;sensor_type;location;lat;lon;timestamp;P1;durP1;ratioP1;P2;durP2;ratioP2
3121;SDS011;1571;52.524;14.104;2022-07-06T00:01:18;2.17;;;1.00;;
3121;SDS011;1571;52.524;14.104;2022-07-06T00:03:46;1.57;;;1.30;;
3121;SDS011;1571;52.524;14.104;2022-07-06T00:06:21;1.00;;;0.90;;
3121;SDS011;1571;52.524;14.104;2022-07-06T00:08:51;3.43;;;1.60;;
3121;SDS011;1571;52.524;14.104;2022-07-06T00:11:20;2.80;;;1.33;;
3121;SDS011;1571;52.524;14.104;2022-07-06T00:13:49;1.10;;;1.00;;
3121;SDS011;1571;52.524;14.104;2022-07-06T00:16:17;2.93;;;0.90;;
3121;SDS011;1571;52.524;14.104;2022-07-06T00:18:46;1.63;;;0.90;;
3121;SDS011;1571;52.524;14.104;2022-07-06T00:21:14;2.13;;;0.90;;
3121;SDS011;1571;52.524;14.104;2022-07-06T00:23:43;1.40;;;1.20;;
3121;SDS011;1571;52.524;14.104;2022-07-06T00:26:12;1.57;;;1.10;;
3121;SDS011;1571;52.524;14.104;2022-07-06T00:28:41;9.10;;;1.70;;
3121;SDS011;1571;52.524;14.104;2022-07-06T00:31:10;2.23;;;1.00;;
3121;SDS011;1571;52.524;14.104;2022-07-06T00:33:38;5.47;;;1.23;;
3121;SDS011;1571;52.524;14.104;2022-07-06T00:36:07;1.10;;;1.00;;
3121;SDS011;1571;52.524;14.104;2022-07-06T00:38:35;1.77;;;0.80;;
3121;SDS011;1571;52.524;14.104;2022-07-06T00:41:03;3.13;;;0.80;;
3121;SDS011;1571;52.524;14.104;2022-07-06T00:46:17;2.13;;;1.10;;
3121;SDS011;1571;52.524;14.104;2022-07-06T00:48:46;2.60;;;1.20;;
3121;SDS011;1571;52.524;14.104;2022-07-06T00:51:14;1.83;;;0.80;;
3121;SDS011;1571;52.524;14.104;2022-07-06T00:53:43;1.57;;;1.00;;
3121;SDS011;1571;52.524;14.104;2022-07-06T00:56:12;1.23;;;1.10;;
3121;SDS011;1571;52.524;14.104;2022-07-06T00:58:41;1.13;;;0.90;;
3121;SDS011;1571;52.524;14.104;2022-07-06T01:01:11;1.00;;;1.00;;
3121;SDS011;1571;52.524;14.104;2022-07-06T01:03:39;2.23;;;1.13;;
3121;SDS011;1571;52.524;14.104;2022-07-06T01:06:09;1.00;;;1.00;;
3121;SDS011;1571;52.524;14.104;2022-07-06T01:08:38;1.00;;;0.90;;
3121;SDS011;1571;52.524;14.104;2022-07-06T01:11:06;2.40;;;1.00;;
3121;SDS011;1571;52.524;14.104;2022-07-06T01:13:35;1.30;;;1.30;;
3121;SDS011;1571;52.524;14.104;2022-07-06T01:16:04;1.90;;;1.07;;
3121;SDS011;1571;52.524;14.104;2022-07-06T01:18:34;2.57;;;1.47;;
3121;SDS011;1571;52.524;14.104;2022-07-06T01:21:08;2.97;;;1.00;;
3121;SDS011;1571;52.524;14.104;2022-07-06T01:23:40;1.20;;;1.20;;
3121;SDS011;1571;52.524;14.104;2022-07-06T01:26:10;1.60;;;1.30;;
3121;SDS011;1571;52.524;14.104;2022-07-06T01:28:40;1.53;;;1.20;;
3121;SDS011;1571;52.524;14.104;2022-07-06T01:31:15;1.20;;;1.10;;
3121;SDS011;1571;52.524;14.104;2022-07-06T01:33:47;1.90;;;0.97;;
3121;SDS011;1571;52.524;14.104;2022-07-06T01:36:18;1.70;;;1.20;;
3121;SDS011;1571;52.524;14.104;2022-07-06T01:38:48;1.00;;;0.97;;
3121;SDS011;1571;52.524;14.104;2022-07-06T01:41:17;2.20;;;1.07;;
3121;SDS011;1571;52.524;14.104;2022-07-06T01:43:47;3.47;;;1.60;;
3121;SDS011;1571;52.524;14.104;2022-07-06T01:46:16;1.87;;;0.90;;
3121;SDS011;1571;52.524;14.104;2022-07-06T01:48:46;2.20;;;1.63;;
3121;SDS011;1571;52.524;14.104;2022-07-06T01:51:15;1.10;;;1.10;;
3121;SDS011;1571;52.524;14.104;2022-07-06T01:53:46;2.93;;;1.20;;
3121;SDS011;1571;52.524;14.104;2022-07-06T01:56:17;1.10;;;1.00;;
3121;SDS011;1571;52.524;14.104;2022-07-06T01:58:49;1.13;;;1.03;;
3121;SDS011;1571;52.524;14.104;2022-07-06T02:01:19;1.17;;;1.00;;
3121;SDS011;1571;52.524;14.104;2022-07-06T02:03:48;1.60;;;1.50;;
3121;SDS011;1571;52.524;14.104;2022-07-06T02:06:16;1.50;;;1.20;;
3121;SDS011;1571;52.524;14.104;2022-07-06T02:08:48;1.63;;;1.20;;
3121;SDS011;1571;52.524;14.104;2022-07-06T02:11:18;1.53;;;1.00;;
3121;SDS011;1571;52.524;14.104;2022-07-06T02:13:46;1.67;;;1.30;;
3121;SDS011;1571;52.524;14.104;2022-07-06T02:16:14;1.00;;;1.00;;
3121;SDS011;1571;52.524;14.104;2022-07-06T02:18:45;3.33;;;1.20;;
3121;SDS011;1571;52.524;14.104;2022-07-06T02:21:13;3.87;;;1.43;;
3121;SDS011;1571;52.524;14.104;2022-07-06T02:23:41;2.23;;;1.90;;
3121;SDS011;1571;52.524;14.104;2022-07-06T02:26:12;1.43;;;1.30;;
3121;SDS011;1571;52.524;14.104;2022-07-06T02:28:40;1.47;;;1.37;;
3121;SDS011;1571;52.524;14.104;2022-07-06T02:31:08;2.77;;;1.40;;
3121;SDS011;1571;52.524;14.104;2022-07-06T02:33:40;2.47;;;2.10;;
3121;SDS011;1571;52.524;14.104;2022-07-06T02:36:10;3.93;;;1.63;;
3121;SDS011;1571;52.524;14.104;2022-07-06T02:38:38;2.90;;;1.23;;
3121;SDS011;1571;52.524;14.104;2022-07-06T02:41:06;2.93;;;1.67;;
3121;SDS011;1571;52.524;14.104;2022-07-06T02:43:37;2.50;;;1.23;;
3121;SDS011;1571;52.524;14.104;2022-07-06T02:46:06;1.87;;;1.70;;
3121;SDS011;1571;52.524;14.104;2022-07-06T02:48:35;2.30;;;1.33;;
3121;SDS011;1571;52.524;14.104;2022-07-06T02:51:05;1.40;;;1.30;;
3121;SDS011;1571;52.524;14.104;2022-07-06T02:53:34;2.63;;;2.00;;
3121;SDS011;1571;52.524;14.104;2022-07-06T02:56:02;1.60;;;1.30;;
3121;SDS011;1571;52.524;14.104;2022-07-06T02:58:33;1.93;;;1.70;;
3121;SDS011;1571;52.524;14.104;2022-07-06T03:01:02;2.27;;;1.97;;
3121;SDS011;1571;52.524;14.104;2022-07-06T03:03:31;2.30;;;1.50;;
3121;SDS011;1571;52.524;14.104;2022-07-06T03:06:00;3.73;;;2.07;;
3121;SDS011;1571;52.524;14.104;2022-07-06T03:08:31;1.87;;;1.60;;
3121;SDS011;1571;52.524;14.104;2022-07-06T03:11:02;2.60;;;2.10;;
3121;SDS011;1571;52.524;14.104;2022-07-06T03:13:30;3.17;;;1.63;;
3121;SDS011;1571;52.524;14.104;2022-07-06T03:16:00;2.10;;;1.90;;
3121;SDS011;1571;52.524;14.104;2022-07-06T03:18:30;5.63;;;2.03;;
3121;SDS011;1571;52.524;14.104;2022-07-06T03:20:59;8.20;;;1.90;;
3121;SDS011;1571;52.524;14.104;2022-07-06T03:23:31;4.43;;;1.37;;
3121;SDS011;1571;52.524;14.104;2022-07-06T03:25:59;7.17;;;2.03;;
3121;SDS011;1571;52.524;14.104;2022-07-06T03:28:29;6.30;;;1.20;;
3121;SDS011;1571;52.524;14.104;2022-07-06T03:30:57;2.07;;;1.30;;
3121;SDS011;1571;52.524;14.104;2022-07-06T03:33:26;3.53;;;1.37;;
3121;SDS011;1571;52.524;14.104;2022-07-06T03:35:55;3.07;;;1.17;;
3121;SDS011;1571;52.524;14.104;2022-07-06T03:38:24;3.97;;;1.00;;
3121;SDS011;1571;52.524;14.104;2022-07-06T03:40:52;3.43;;;1.30;;
3121;SDS011;1571;52.524;14.104;2022-07-06T03:43:21;2.10;;;0.90;;
3121;SDS011;1571;52.524;14.104;2022-07-06T03:45:49;0.80;;;0.80;;
3121;SDS011;1571;52.524;14.104;2022-07-06T03:48:18;5.33;;;0.80;;
3121;SDS011;1571;52.524;14.104;2022-07-06T03:50:48;2.00;;;1.03;;
3121;SDS011;1571;52.524;14.104;2022-07-06T03:53:17;1.90;;;1.10;;
3121;SDS011;1571;52.524;14.104;2022-07-06T03:55:47;2.50;;;0.70;;
3121;SDS011;1571;52.524;14.104;2022-07-06T03:58:36;1.07;;;0.90;;
3121;SDS011;1571;52.524;14.104;2022-07-06T04:01:05;2.63;;;1.57;;
3121;SDS011;1571;52.524;14.104;2022-07-06T04:03:34;2.20;;;1.03;;
3121;SDS011;1571;52.524;14.104;2022-07-06T04:06:03;1.90;;;0.90;;
3121;SDS011;1571;52.524;14.104;2022-07-06T04:08:33;2.70;;;1.00;;
3121;SDS011;1571;52.524;14.104;2022-07-06T04:11:02;1.00;;;0.90;;
3121;SDS011;1571;52.524;14.104;2022-07-06T04:13:31;1.10;;;0.83;;
3121;SDS011;1571;52.524;14.104;2022-07-06T04:16:00;1.27;;;1.17;;
3121;SDS011;1571;52.524;14.104;2022-07-06T04:18:30;1.17;;;0.90;;
3121;SDS011;1571;52.524;14.104;2022-07-06T04:20:59;3.60;;;1.80;;
3121;SDS011;1571;52.524;14.104;2022-07-06T04:23:30;4.10;;;1.30;;
3121;SDS011;1571;52.524;14.104;2022-07-06T04:26:02;2.90;;;1.10;;
3121;SDS011;1571;52.524;14.104;2022-07-06T04:28:33;1.57;;;1.30;;
3121;SDS011;1571;52.524;14.104;2022-07-06T04:31:01;1.60;;;1.47;;
3121;SDS011;1571;52.524;14.104;2022-07-06T04:33:30;1.47;;;1.20;;
3121;SDS011;1571;52.524;14.104;2022-07-06T04:35:59;3.50;;;1.33;;
3121;SDS011;1571;52.524;14.104;2022-07-06T04:38:36;2.20;;;1.40;;
3121;SDS011;1571;52.524;14.104;2022-07-06T04:41:08;3.70;;;1.47;;
3121;SDS011;1571;52.524;14.104;2022-07-06T04:43:36;2.30;;;1.93;;
3121;SDS011;1571;52.524;14.104;2022-07-06T04:46:05;5.50;;;2.07;;
3121;SDS011;1571;52.524;14.104;2022-07-06T04:48:37;2.60;;;2.03;;
3121;SDS011;1571;52.524;14.104;2022-07-06T04:51:10;1.60;;;1.50;;
3121;SDS011;1571;52.524;14.104;2022-07-06T04:53:38;1.80;;;1.70;;
3121;SDS011;1571;52.524;14.104;2022-07-06T04:56:08;2.07;;;1.90;;
3121;SDS011;1571;52.524;14.104;2022-07-06T04:58:38;4.93;;;2.00;;
3121;SDS011;1571;52.524;14.104;2022-07-06T05:01:11;2.70;;;1.77;;
3121;SDS011;1571;52.524;14.104;2022-07-06T05:03:40;1.70;;;1.60;;
3121;SDS011;1571;52.524;14.104;2022-07-06T05:06:11;3.93;;;2.20;;
3121;SDS011;1571;52.524;14.104;2022-07-06T05:08:39;3.70;;;1.60;;
3121;SDS011;1571;52.524;14.104;2022-07-06T05:11:09;3.97;;;2.03;;
3121;SDS011;1571;52.524;14.104;2022-07-06T05:13:37;3.57;;;1.90;;
3121;SDS011;1571;52.524;14.104;2022-07-06T05:16:06;2.97;;;1.83;;
3121;SDS011;1571;52.524;14.104;2022-07-06T05:18:35;5.90;;;1.60;;
3121;SDS011;1571;52.524;14.104;2022-07-06T05:21:05;3.00;;;1.40;;
3121;SDS011;1571;52.524;14.104;2022-07-06T05:23:33;2.77;;;1.63;;
3121;SDS011;1571;52.524;14.104;2022-07-06T05:26:03;4.07;;;1.60;;
3121;SDS011;1571;52.524;14.104;2022-07-06T05:28:34;2.03;;;1.73;;
3121;SDS011;1571;52.524;14.104;2022-07-06T05:31:05;1.30;;;1.20;;
3121;SDS011;1571;52.524;14.104;2022-07-06T05:33:37;3.03;;;1.50;;
3121;SDS011;1571;52.524;14.104;2022-07-06T05:36:05;3.73;;;1.50;;
3121;SDS011;1571;52.524;14.104;2022-07-06T05:38:35;3.10;;;1.50;;
3121;SDS011;1571;52.524;14.104;2022-07-06T05:41:04;2.93;;;1.63;;
3121;SDS011;1571;52.524;14.104;2022-07-06T05:43:36;3.97;;;1.83;;
3121;SDS011;1571;52.524;14.104;2022-07-06T05:46:04;2.53;;;1.63;;
3121;SDS011;1571;52.524;14.104;2022-07-06T05:48:35;2.03;;;1.83;;
3121;SDS011;1571;52.524;14.104;2022-07-06T05:51:26;2.90;;;1.30;;
3121;SDS011;1571;52.524;14.104;2022-07-06T05:53:54;4.83;;;1.80;;
3121;SDS011;1571;52.524;14.104;2022-07-06T05:56:23;7.23;;;3.20;;
3121;SDS011;1571;52.524;14.104;2022-07-06T05:58:53;2.77;;;1.43;;
3121;SDS011;1571;52.524;14.104;2022-07-06T06:01:23;1.40;;;1.30;;
3121;SDS011;1571;52.524;14.104;2022-07-06T06:04:01;2.50;;;1.70;;
3121;SDS011;1571;52.524;14.104;2022-07-06T06:06:30;2.07;;;1.00;;
3121;SDS011;1571;52.524;14.104;2022-07-06T06:08:59;2.40;;;1.63;;
3121;SDS011;1571;52.524;14.104;2022-07-06T06:11:27;3.87;;;1.27;;
3121;SDS011;1571;52.524;14.104;2022-07-06T06:13:57;2.97;;;1.40;;
3121;SDS011;1571;52.524;14.104;2022-07-06T06:16:25;2.23;;;1.30;;
3121;SDS011;1571;52.524;14.104;2022-07-06T06:18:53;4.60;;;1.80;;
3121;SDS011;1571;52.524;14.104;2022-07-06T06:21:21;1.70;;;1.20;;
3121;SDS011;1571;52.524;14.104;2022-07-06T06:23:50;1.70;;;1.33;;
3121;SDS011;1571;52.524;14.104;2022-07-06T06:26:18;1.90;;;1.27;;
3121;SDS011;1571;52.524;14.104;2022-07-06T06:28:47;3.33;;;1.10;;
3121;SDS011;1571;52.524;14.104;2022-07-06T06:31:17;1.13;;;0.80;;
3121;SDS011;1571;52.524;14.104;2022-07-06T06:33:46;2.20;;;1.10;;
3121;SDS011;1571;52.524;14.104;2022-07-06T06:36:14;5.00;;;1.33;;
3121;SDS011;1571;52.524;14.104;2022-07-06T06:38:43;1.10;;;0.90;;
3121;SDS011;1571;52.524;14.104;2022-07-06T06:41:11;7.57;;;0.90;;
3121;SDS011;1571;52.524;14.104;2022-07-06T06:43:39;0.70;;;0.70;;
3121;SDS011;1571;52.524;14.104;2022-07-06T06:46:13;4.07;;;1.47;;
3121;SDS011;1571;52.524;14.104;2022-07-06T06:48:42;1.77;;;0.80;;
3121;SDS011;1571;52.524;14.104;2022-07-06T06:51:10;1.57;;;0.70;;
3121;SDS011;1571;52.524;14.104;2022-07-06T06:53:39;3.93;;;1.00;;
3121;SDS011;1571;52.524;14.104;2022-07-06T06:56:07;4.53;;;0.70;;
3121;SDS011;1571;52.524;14.104;2022-07-06T06:58:36;1.90;;;1.07;;
3121;SDS011;1571;52.524;14.104;2022-07-06T07:01:24;2.53;;;0.80;;
3121;SDS011;1571;52.524;14.104;2022-07-06T07:03:54;1.47;;;0.70;;
3121;SDS011;1571;52.524;14.104;2022-07-06T07:06:23;1.53;;;1.00;;
3121;SDS011;1571;52.524;14.104;2022-07-06T07:08:51;2.73;;;0.87;;
3121;SDS011;1571;52.524;14.104;2022-07-06T07:11:19;3.17;;;1.73;;
3121;SDS011;1571;52.524;14.104;2022-07-06T07:13:47;1.70;;;0.80;;
3121;SDS011;1571;52.524;14.104;2022-07-06T07:16:16;0.67;;;0.67;;
3121;SDS011;1571;52.524;14.104;2022-07-06T07:18:44;1.37;;;1.00;;
3121;SDS011;1571;52.524;14.104;2022-07-06T07:21:14;3.50;;;0.80;;
3121;SDS011;1571;52.524;14.104;2022-07-06T07:23:42;3.13;;;0.83;;
3121;SDS011;1571;52.524;14.104;2022-07-06T07:26:10;1.93;;;1.07;;
3121;SDS011;1571;52.524;14.104;2022-07-06T07:28:39;1.07;;;0.50;;
3121;SDS011;1571;52.524;14.104;2022-07-06T07:31:07;2.00;;;0.80;;
3121;SDS011;1571;52.524;14.104;2022-07-06T07:33:35;6.30;;;0.80;;
3121;SDS011;1571;52.524;14.104;2022-07-06T07:36:04;1.47;;;0.50;;
3121;SDS011;1571;52.524;14.104;2022-07-06T07:38:34;1.43;;;0.70;;
3121;SDS011;1571;52.524;14.104;2022-07-06T07:41:02;0.97;;;0.60;;
3121;SDS011;1571;52.524;14.104;2022-07-06T07:43:30;1.33;;;0.60;;
3121;SDS011;1571;52.524;14.104;2022-07-06T07:45:58;7.87;;;0.83;;
3121;SDS011;1571;52.524;14.104;2022-07-06T07:48:27;2.40;;;0.70;;
3121;SDS011;1571;52.524;14.104;2022-07-06T07:50:55;1.77;;;0.60;;
3121;SDS011;1571;52.524;14.104;2022-07-06T07:53:23;1.60;;;0.70;;
3121;SDS011;1571;52.524;14.104;2022-07-06T07:55:52;5.47;;;0.90;;
3121;SDS011;1571;52.524;14.104;2022-07-06T07:58:21;2.30;;;0.70;;
3121;SDS011;1571;52.524;14.104;2022-07-06T08:00:50;2.37;;;0.70;;
3121;SDS011;1571;52.524;14.104;2022-07-06T08:03:18;0.90;;;0.50;;
3121;SDS011;1571;52.524;14.104;2022-07-06T08:05:46;3.37;;;0.70;;
3121;SDS011;1571;52.524;14.104;2022-07-06T08:08:15;1.00;;;0.60;;
3121;SDS011;1571;52.524;14.104;2022-07-06T08:10:43;3.27;;;0.80;;
3121;SDS011;1571;52.524;14.104;2022-07-06T08:13:33;4.13;;;0.80;;
3121;SDS011;1571;52.524;14.104;2022-07-06T08:16:01;2.00;;;0.70;;
3121;SDS011;1571;52.524;14.104;2022-07-06T08:18:29;0.73;;;0.63;;
3121;SDS011;1571;52.524;14.104;2022-07-06T08:20:58;1.10;;;0.90;;
3121;SDS011;1571;52.524;14.104;2022-07-06T08:23:46;2.70;;;0.90;;
3121;SDS011;1571;52.524;14.104;2022-07-06T08:26:15;2.13;;;0.90;;
3121;SDS011;1571;52.524;14.104;2022-07-06T08:28:45;0.90;;;0.60;;
3121;SDS011;1571;52.524;14.104;2022-07-06T08:31:13;1.00;;;0.80;;
3121;SDS011;1571;52.524;14.104;2022-07-06T08:34:02;4.40;;;0.80;;
3121;SDS011;1571;52.524;14.104;2022-07-06T08:36:30;2.33;;;0.70;;
3121;SDS011;1571;52.524;14.104;2022-07-06T08:38:58;0.80;;;0.67;;
3121;SDS011;1571;52.524;14.104;2022-07-06T08:41:28;2.10;;;0.73;;
3121;SDS011;1571;52.524;14.104;2022-07-06T08:43:59;2.10;;;0.60;;
3121;SDS011;1571;52.524;14.104;2022-07-06T08:46:29;1.43;;;0.70;;
3121;SDS011;1571;52.524;14.104;2022-07-06T08:48:57;0.83;;;0.70;;
3121;SDS011;1571;52.524;14.104;2022-07-06T08:51:28;4.20;;;0.80;;
3121;SDS011;1571;52.524;14.104;2022-07-06T08:53:56;1.40;;;0.70;;
3121;SDS011;1571;52.524;14.104;2022-07-06T08:56:25;2.93;;;0.60;;
3121;SDS011;1571;52.524;14.104;2022-07-06T08:58:53;3.70;;;0.80;;
3121;SDS011;1571;52.524;14.104;2022-07-06T09:01:23;2.83;;;0.60;;
3121;SDS011;1571;52.524;14.104;2022-07-06T09:03:52;3.50;;;0.70;;
3121;SDS011;1571;52.524;14.104;2022-07-06T09:06:23;1.73;;;0.87;;
3121;SDS011;1571;52.524;14.104;2022-07-06T09:08:52;4.90;;;0.70;;
3121;SDS011;1571;52.524;14.104;2022-07-06T09:11:22;1.50;;;0.50;;
3121;SDS011;1571;52.524;14.104;2022-07-06T09:13:52;1.13;;;0.50;;
3121;SDS011;1571;52.524;14.104;2022-07-06T09:16:26;2.40;;;1.00;;
3121;SDS011;1571;52.524;14.104;2022-07-06T09:19:06;3.77;;;0.50;;
3121;SDS011;1571;52.524;14.104;2022-07-06T09:21:34;0.60;;;0.60;;
3121;SDS011;1571;52.524;14.104;2022-07-06T09:24:08;1.00;;;0.57;;
3121;SDS011;1571;52.524;14.104;2022-07-06T09:26:37;2.10;;;0.70;;
3121;SDS011;1571;52.524;14.104;2022-07-06T09:29:07;6.33;;;1.10;;
3121;SDS011;1571;52.524;14.104;2022-07-06T09:31:37;2.50;;;0.67;;
3121;SDS011;1571;52.524;14.104;2022-07-06T09:34:07;3.37;;;0.70;;
3121;SDS011;1571;52.524;14.104;2022-07-06T09:36:38;3.47;;;0.73;;
3121;SDS011;1571;52.524;14.104;2022-07-06T09:39:17;3.67;;;1.57;;
3121;SDS011;1571;52.524;14.104;2022-07-06T09:41:47;3.93;;;1.20;;
3121;SDS011;1571;52.524;14.104;2022-07-06T09:44:20;2.00;;;0.63;;
3121;SDS011;1571;52.524;14.104;2022-07-06T09:46:51;3.80;;;1.23;;
3121;SDS011;1571;52.524;14.104;2022-07-06T09:49:19;2.00;;;0.53;;
3121;SDS011;1571;52.524;14.104;2022-07-06T09:51:50;0.60;;;0.60;;
3121;SDS011;1571;52.524;14.104;2022-07-06T09:54:19;2.33;;;0.60;;
3121;SDS011;1571;52.524;14.104;2022-07-06T09:56:48;1.00;;;0.53;;
3121;SDS011;1571;52.524;14.104;2022-07-06T09:59:20;3.13;;;0.63;;
3121;SDS011;1571;52.524;14.104;2022-07-06T10:01:52;1.07;;;0.50;;
3121;SDS011;1571;52.524;14.104;2022-07-06T10:04:23;2.00;;;0.50;;
3121;SDS011;1571;52.524;14.104;2022-07-06T10:06:52;0.60;;;0.60;;
3121;SDS011;1571;52.524;14.104;2022-07-06T10:09:22;4.00;;;0.60;;
3121;SDS011;1571;52.524;14.104;2022-07-06T10:11:53;2.20;;;0.43;;
3121;SDS011;1571;52.524;14.104;2022-07-06T10:14:23;1.33;;;0.50;;
3121;SDS011;1571;52.524;14.104;2022-07-06T10:16:55;1.23;;;0.50;;
3121;SDS011;1571;52.524;14.104;2022-07-06T10:19:24;1.67;;;0.60;;
3121;SDS011;1571;52.524;14.104;2022-07-06T10:21:53;1.57;;;0.50;;
3121;SDS011;1571;52.524;14.104;2022-07-06T10:24:24;0.87;;;0.50;;
3121;SDS011;1571;52.524;14.104;2022-07-06T10:26:53;0.40;;;0.40;;
3121;SDS011;1571;52.524;14.104;2022-07-06T10:29:23;0.80;;;0.40;;
3121;SDS011;1571;52.524;14.104;2022-07-06T10:31:52;0.53;;;0.40;;
3121;SDS011;1571;52.524;14.104;2022-07-06T10:34:23;1.27;;;0.40;;
3121;SDS011;1571;52.524;14.104;2022-07-06T10:36:52;2.00;;;0.50;;
3121;SDS011;1571;52.524;14.104;2022-07-06T10:39:32;1.70;;;0.53;;
3121;SDS011;1571;52.524;14.104;2022-07-06T10:45:19;2.17;;;0.60;;
3121;SDS011;1571;52.524;14.104;2022-07-06T10:48:16;0.90;;;0.40;;
3121;SDS011;1571;52.524;14.104;2022-07-06T10:50:49;0.53;;;0.40;;
3121;SDS011;1571;52.524;14.104;2022-07-06T10:53:21;7.70;;;0.50;;
3121;SDS011;1571;52.524;14.104;2022-07-06T10:55:52;0.60;;;0.40;;
3121;SDS011;1571;52.524;14.104;2022-07-06T10:58:37;9.30;;;0.60;;
3121;SDS011;1571;52.524;14.104;2022-07-06T11:01:08;0.30;;;0.30;;
3121;SDS011;1571;52.524;14.104;2022-07-06T11:03:39;1.27;;;0.40;;
3121;SDS011;1571;52.524;14.104;2022-07-06T11:06:10;5.80;;;0.40;;
3121;SDS011;1571;52.524;14.104;2022-07-06T11:08:41;1.93;;;0.40;;
3121;SDS011;1571;52.524;14.104;2022-07-06T11:11:15;0.80;;;0.40;;
3121;SDS011;1571;52.524;14.104;2022-07-06T11:16:33;1.77;;;0.50;;
3121;SDS011;1571;52.524;14.104;2022-07-06T11:19:09;2.10;;;0.70;;
3121;SDS011;1571;52.524;14.104;2022-07-06T11:21:39;0.70;;;0.40;;
3121;SDS011;1571;52.524;14.104;2022-07-06T11:24:11;0.90;;;0.43;;
3121;SDS011;1571;52.524;14.104;2022-07-06T11:26:43;1.87;;;0.50;;
3121;SDS011;1571;52.524;14.104;2022-07-06T11:29:13;2.07;;;0.47;;
3121;SDS011;1571;52.524;14.104;2022-07-06T11:31:44;0.83;;;0.40;;
3121;SDS011;1571;52.524;14.104;2022-07-06T11:34:17;2.73;;;0.43;;
3121;SDS011;1571;52.524;14.104;2022-07-06T11:36:46;1.90;;;0.50;;
3121;SDS011;1571;52.524;14.104;2022-07-06T11:39:15;0.70;;;0.40;;
3121;SDS011;1571;52.524;14.104;2022-07-06T11:41:43;1.10;;;0.40;;
3121;SDS011;1571;52.524;14.104;2022-07-06T11:44:17;1.00;;;0.40;;
3121;SDS011;1571;52.524;14.104;2022-07-06T11:46:46;1.30;;;0.40;;
3121;SDS011;1571;52.524;14.104;2022-07-06T11:49:16;0.73;;;0.37;;
3121;SDS011;1571;52.524;14.104;2022-07-06T11:51:45;2.87;;;0.50;;
3121;SDS011;1571;52.524;14.104;2022-07-06T11:54:14;0.93;;;0.40;;
3121;SDS011;1571;52.524;14.104;2022-07-06T11:56:48;0.57;;;0.40;;
3121;SDS011;1571;52.524;14.104;2022-07-06T11:59:20;1.33;;;0.50;;
3121;SDS011;1571;52.524;14.104;2022-07-06T12:01:49;0.47;;;0.40;;
3121;SDS011;1571;52.524;14.104;2022-07-06T12:04:26;3.87;;;0.70;;
3121;SDS011;1571;52.524;14.104;2022-07-06T12:06:55;0.80;;;0.30;;
3121;SDS011;1571;52.524;14.104;2022-07-06T12:09:29;0.50;;;0.40;;
3121;SDS011;1571;52.524;14.104;2022-07-06T12:11:57;0.40;;;0.30;;
3121;SDS011;1571;52.524;14.104;2022-07-06T12:14:29;1.23;;;0.40;;
3121;SDS011;1571;52.524;14.104;2022-07-06T12:17:02;0.60;;;0.40;;
3121;SDS011;1571;52.524;14.104;2022-07-06T12:19:33;3.03;;;0.40;;
3121;SDS011;1571;52.524;14.104;2022-07-06T12:22:02;2.10;;;0.50;;
3121;SDS011;1571;52.524;14.104;2022-07-06T12:24:32;0.50;;;0.43;;
3121;SDS011;1571;52.524;14.104;2022-07-06T12:27:09;1.47;;;0.40;;
3121;SDS011;1571;52.524;14.104;2022-07-06T12:29:38;0.90;;;0.40;;
3121;SDS011;1571;52.524;14.104;2022-07-06T12:32:07;1.50;;;0.60;;
3121;SDS011;1571;52.524;14.104;2022-07-06T12:34:43;0.80;;;0.50;;
3121;SDS011;1571;52.524;14.104;2022-07-06T12:37:12;1.13;;;0.50;;
3121;SDS011;1571;52.524;14.104;2022-07-06T12:39:41;0.43;;;0.40;;
3121;SDS011;1571;52.524;14.104;2022-07-06T12:42:12;1.87;;;0.43;;
3121;SDS011;1571;52.524;14.104;2022-07-06T12:44:46;4.10;;;0.50;;
3121;SDS011;1571;52.524;14.104;2022-07-06T12:47:16;1.40;;;0.50;;
3121;SDS011;1571;52.524;14.104;2022-07-06T12:50:03;2.00;;;0.80;;
3121;SDS011;1571;52.524;14.104;2022-07-06T12:52:33;1.60;;;0.40;;
3121;SDS011;1571;52.524;14.104;2022-07-06T12:55:03;0.93;;;0.47;;
3121;SDS011;1571;52.524;14.104;2022-07-06T12:57:42;0.77;;;0.50;;
3121;SDS011;1571;52.524;14.104;2022-07-06T13:00:11;1.53;;;0.40;;
3121;SDS011;1571;52.524;14.104;2022-07-06T13:02:43;1.80;;;0.40;;
3121;SDS011;1571;52.524;14.104;2022-07-06T13:05:33;0.67;;;0.60;;
3121;SDS011;1571;52.524;14.104;2022-07-06T13:08:02;1.53;;;0.50;;
3121;SDS011;1571;52.524;14.104;2022-07-06T13:10:31;0.47;;;0.40;;
3121;SDS011;1571;52.524;14.104;2022-07-06T13:13:00;2.13;;;0.40;;
3121;SDS011;1571;52.524;14.104;2022-07-06T13:15:28;1.97;;;0.50;;
3121;SDS011;1571;52.524;14.104;2022-07-06T13:17:57;2.10;;;0.30;;
3121;SDS011;1571;52.524;14.104;2022-07-06T13:20:25;0.50;;;0.30;;
3121;SDS011;1571;52.524;14.104;2022-07-06T13:22:56;3.63;;;0.40;;
3121;SDS011;1571;52.524;14.104;2022-07-06T13:25:24;0.87;;;0.40;;
3121;SDS011;1571;52.524;14.104;2022-07-06T13:27:52;2.03;;;0.40;;
3121;SDS011;1571;52.524;14.104;2022-07-06T13:30:20;1.87;;;0.40;;
3121;SDS011;1571;52.524;14.104;2022-07-06T13:32:48;4.77;;;0.40;;
3121;SDS011;1571;52.524;14.104;2022-07-06T13:35:17;2.37;;;0.43;;
3121;SDS011;1571;52.524;14.104;2022-07-06T13:37:46;1.23;;;0.40;;
3121;SDS011;1571;52.524;14.104;2022-07-06T13:40:17;7.70;;;2.67;;
3121;SDS011;1571;52.524;14.104;2022-07-06T13:42:45;1.80;;;0.40;;
3121;SDS011;1571;52.524;14.104;2022-07-06T13:45:14;1.13;;;0.50;;
3121;SDS011;1571;52.524;14.104;2022-07-06T13:47:42;0.43;;;0.40;;
3121;SDS011;1571;52.524;14.104;2022-07-06T13:50:10;1.27;;;0.50;;
3121;SDS011;1571;52.524;14.104;2022-07-06T13:52:38;2.43;;;0.60;;
3121;SDS011;1571;52.524;14.104;2022-07-06T13:55:07;0.77;;;0.40;;
3121;SDS011;1571;52.524;14.104;2022-07-06T13:57:37;0.60;;;0.60;;
3121;SDS011;1571;52.524;14.104;2022-07-06T14:00:09;0.83;;;0.47;;
3121;SDS011;1571;52.524;14.104;2022-07-06T14:02:38;1.50;;;0.50;;
3121;SDS011;1571;52.524;14.104;2022-07-06T14:05:07;1.17;;;0.40;;
3121;SDS011;1571;52.524;14.104;2022-07-06T14:07:35;1.80;;;0.50;;
3121;SDS011;1571;52.524;14.104;2022-07-06T14:10:04;3.80;;;0.50;;
3121;SDS011;1571;52.524;14.104;2022-07-06T14:12:33;1.43;;;0.67;;
3121;SDS011;1571;52.524;14.104;2022-07-06T14:15:03;0.87;;;0.40;;
3121;SDS011;1571;52.524;14.104;2022-07-06T14:17:32;3.03;;;0.50;;
3121;SDS011;1571;52.524;14.104;2022-07-06T14:20:00;1.57;;;0.40;;
3121;SDS011;1571;52.524;14.104;2022-07-06T14:22:29;2.13;;;0.73;;
3121;SDS011;1571;52.524;14.104;2022-07-06T14:24:57;0.50;;;0.30;;
3121;SDS011;1571;52.524;14.104;2022-07-06T14:27:26;2.30;;;0.50;;
3121;SDS011;1571;52.524;14.104;2022-07-06T14:29:54;1.47;;;0.50;;
3121;SDS011;1571;52.524;14.104;2022-07-06T14:32:24;1.43;;;0.50;;
3121;SDS011;1571;52.524;14.104;2022-07-06T14:34:53;1.00;;;0.50;;
3121;SDS011;1571;52.524;14.104;2022-07-06T14:37:21;1.30;;;0.50;;
3121;SDS011;1571;52.524;14.104;2022-07-06T14:39:49;1.53;;;0.70;;
3121;SDS011;1571;52.524;14.104;2022-07-06T14:42:17;2.00;;;0.50;;
3121;SDS011;1571;52.524;14.104;2022-07-06T14:44:46;1.03;;;0.40;;
3121;SDS011;1571;52.524;14.104;2022-07-06T14:47:15;0.80;;;0.50;;
3121;SDS011;1571;52.524;14.104;2022-07-06T14:49:44;1.90;;;0.50;;
3121;SDS011;1571;52.524;14.104;2022-07-06T14:52:13;3.13;;;0.43;;
3121;SDS011;1571;52.524;14.104;2022-07-06T14:54:41;1.17;;;0.40;;
3121;SDS011;1571;52.524;14.104;2022-07-06T14:57:09;1.47;;;0.50;;
3121;SDS011;1571;52.524;14.104;2022-07-06T14:59:38;0.47;;;0.47;;
3121;SDS011;1571;52.524;14.104;2022-07-06T15:02:06;1.23;;;0.40;;
3121;SDS011;1571;52.524;14.104;2022-07-06T15:04:35;0.50;;;0.50;;
3121;SDS011;1571;52.524;14.104;2022-07-06T15:07:04;1.63;;;0.50;;
3121;SDS011;1571;52.524;14.104;2022-07-06T15:09:33;1.37;;;0.60;;
3121;SDS011;1571;52.524;14.104;2022-07-06T15:12:01;1.17;;;0.40;;
3121;SDS011;1571;52.524;14.104;2022-07-06T15:14:30;0.37;;;0.30;;
3121;SDS011;1571;52.524;14.104;2022-07-06T15:16:58;0.40;;;0.40;;
3121;SDS011;1571;52.524;14.104;2022-07-06T15:19:27;3.13;;;0.50;;
3121;SDS011;1571;52.524;14.104;2022-07-06T15:21:55;0.63;;;0.30;;
3121;SDS011;1571;52.524;14.104;2022-07-06T15:24:25;1.23;;;0.40;;
3121;SDS011;1571;52.524;14.104;2022-07-06T15:26:53;0.90;;;0.40;;